AMT164 KATL-KRSW
Flight info
| Callsign | AMT164 |
|---|---|
| Flight time | N/A |
| Altitude | 37000 |
| Route | ATL2 SOTWO LUCKK HONID Q81 NICKI PUMPP2 |
| Aircraft | L101/H-SDFGHIRWXY/S |
Departure
| Time | 2026-05-07 21:55 |
|---|---|
| Airport | Hartsfield Jackson Atlanta International Airport (KATL) |
Arrival
| Time | N/A |
|---|---|
| Airport | Southwest Florida International Airport (KRSW) |
| Time | Latitude | Longitude | Altitude | Speed | Heading |
|---|---|---|---|---|---|
| 2026-05-07 21:28 | 33.64054 | -84.42062 | 1011 ft | 0 kts | 90° |
| 2026-05-07 21:45 | 33.64054 | -84.42068 | 1011 ft | 3 kts | 91° |
| 2026-05-07 21:45 | 33.64056 | -84.42100 | 1011 ft | 4 kts | 104° |
| 2026-05-07 21:45 | 33.64066 | -84.42129 | 1011 ft | 4 kts | 128° |
| 2026-05-07 21:46 | 33.64084 | -84.42145 | 1011 ft | 2 kts | 178° |
| 2026-05-07 21:46 | 33.64087 | -84.42146 | 1011 ft | 0 kts | 180° |
| 2026-05-07 21:50 | 33.64080 | -84.42146 | 1011 ft | 4 kts | 180° |
| 2026-05-07 21:50 | 33.64045 | -84.42146 | 1011 ft | 7 kts | 180° |
| 2026-05-07 21:50 | 33.63987 | -84.42146 | 1011 ft | 10 kts | 180° |
| 2026-05-07 21:51 | 33.63905 | -84.42145 | 1011 ft | 13 kts | 180° |
| 2026-05-07 21:51 | 33.63806 | -84.42145 | 1011 ft | 16 kts | 180° |
| 2026-05-07 21:51 | 33.63703 | -84.42144 | 1012 ft | 15 kts | 175° |
| 2026-05-07 21:51 | 33.63654 | -84.42051 | 1012 ft | 16 kts | 88° |
| 2026-05-07 21:52 | 33.63655 | -84.41904 | 1011 ft | 19 kts | 90° |
| 2026-05-07 21:52 | 33.63655 | -84.41734 | 1011 ft | 21 kts | 90° |
| 2026-05-07 21:52 | 33.63656 | -84.41546 | 1011 ft | 24 kts | 89° |
| 2026-05-07 21:52 | 33.63656 | -84.41337 | 1011 ft | 26 kts | 90° |
| 2026-05-07 21:53 | 33.63656 | -84.41127 | 1011 ft | 24 kts | 90° |
| 2026-05-07 21:53 | 33.63656 | -84.40969 | 1011 ft | 13 kts | 93° |
| 2026-05-07 21:53 | 33.63599 | -84.40908 | 1011 ft | 6 kts | 176° |
| 2026-05-07 21:53 | 33.63576 | -84.40907 | 1011 ft | 6 kts | 178° |
| 2026-05-07 21:54 | 33.63518 | -84.40905 | 1012 ft | 11 kts | 181° |
| 2026-05-07 21:54 | 33.63473 | -84.40969 | 1012 ft | 12 kts | 269° |
| 2026-05-07 21:54 | 33.63473 | -84.40985 | 1012 ft | 0 kts | 269° |
| 2026-05-07 21:54 | 33.63473 | -84.40986 | 1012 ft | 1 kts | 269° |
| 2026-05-07 21:55 | 33.63472 | -84.41078 | 1011 ft | 36 kts | 270° |
| 2026-05-07 21:55 | 33.63472 | -84.41760 | 1011 ft | 126 kts | 270° |
| 2026-05-07 21:55 | 33.63464 | -84.43063 | 1438 ft | 172 kts | 271° |
| 2026-05-07 21:55 | 33.63438 | -84.44513 | 2586 ft | 175 kts | 271° |
| 2026-05-07 21:56 | 33.63385 | -84.46025 | 3654 ft | 185 kts | 269° |
| 2026-05-07 21:56 | 33.63337 | -84.47524 | 4673 ft | 173 kts | 269° |
| 2026-05-07 21:56 | 33.63293 | -84.48973 | 5437 ft | 175 kts | 265° |
| 2026-05-07 21:56 | 33.62820 | -84.50337 | 6021 ft | 189 kts | 235° |
| 2026-05-07 21:57 | 33.61689 | -84.51241 | 6619 ft | 202 kts | 213° |
| 2026-05-07 21:57 | 33.60287 | -84.51906 | 6764 ft | 236 kts | 207° |
| 2026-05-07 21:57 | 33.58583 | -84.52470 | 7022 ft | 270 kts | 192° |
| 2026-05-07 21:57 | 33.56666 | -84.52413 | 7889 ft | 278 kts | 180° |
| 2026-05-07 21:58 | 33.54731 | -84.52060 | 8704 ft | 289 kts | 178° |
| 2026-05-07 21:58 | 33.52655 | -84.51584 | 8902 ft | 320 kts | 175° |
| 2026-05-07 21:58 | 33.50437 | -84.51038 | 9668 ft | 325 kts | 176° |
| 2026-05-07 21:58 | 33.48250 | -84.50554 | 10852 ft | 315 kts | 179° |
| 2026-05-07 21:59 | 33.46078 | -84.50097 | 11674 ft | 322 kts | 180° |
| 2026-05-07 21:59 | 33.43804 | -84.49617 | 11996 ft | 345 kts | 180° |
| 2026-05-07 21:59 | 33.41344 | -84.49108 | 12149 ft | 372 kts | 180° |
| 2026-05-07 21:59 | 33.38704 | -84.48584 | 12289 ft | 396 kts | 180° |
| 2026-05-07 22:00 | 33.35863 | -84.48040 | 12420 ft | 419 kts | 180° |
| 2026-05-07 22:00 | 33.33005 | -84.47495 | 13151 ft | 423 kts | 180° |
| 2026-05-07 22:00 | 33.30133 | -84.46912 | 14390 ft | 413 kts | 180° |
| 2026-05-07 22:00 | 33.27315 | -84.46291 | 15331 ft | 414 kts | 180° |
| 2026-05-07 22:01 | 33.24444 | -84.45641 | 15778 ft | 427 kts | 180° |
| 2026-05-07 22:01 | 33.21499 | -84.44970 | 16497 ft | 431 kts | 180° |
| 2026-05-07 22:01 | 33.18596 | -84.44282 | 17789 ft | 420 kts | 180° |
| 2026-05-07 22:01 | 33.15737 | -84.43584 | 18697 ft | 419 kts | 181° |
| 2026-05-07 22:02 | 33.12837 | -84.43074 | 19001 ft | 428 kts | 185° |
| 2026-05-07 22:02 | 33.09832 | -84.42817 | 19416 ft | 433 kts | 189° |
| 2026-05-07 22:02 | 33.06838 | -84.42709 | 20378 ft | 426 kts | 190° |
| 2026-05-07 22:02 | 33.03893 | -84.42641 | 21404 ft | 423 kts | 191° |
| 2026-05-07 22:03 | 33.00920 | -84.42590 | 21853 ft | 434 kts | 191° |
| 2026-05-07 22:03 | 32.97844 | -84.42558 | 22139 ft | 448 kts | 190° |
| 2026-05-07 22:03 | 32.94726 | -84.42519 | 23048 ft | 447 kts | 190° |
| 2026-05-07 22:03 | 32.91643 | -84.42453 | 24103 ft | 443 kts | 190° |
| 2026-05-07 22:04 | 32.88528 | -84.42390 | 24520 ft | 455 kts | 190° |
| 2026-05-07 22:04 | 32.85298 | -84.42345 | 24715 ft | 470 kts | 190° |
| 2026-05-07 22:04 | 32.82023 | -84.42296 | 25564 ft | 469 kts | 190° |
| 2026-05-07 22:04 | 32.78786 | -84.42221 | 26753 ft | 462 kts | 189° |
| 2026-05-07 22:05 | 32.75564 | -84.42139 | 27443 ft | 466 kts | 189° |
| 2026-05-07 22:05 | 32.72275 | -84.42069 | 27653 ft | 480 kts | 189° |
| 2026-05-07 22:05 | 32.68902 | -84.42009 | 28115 ft | 487 kts | 189° |
| 2026-05-07 22:05 | 32.65528 | -84.41937 | 29057 ft | 485 kts | 189° |
| 2026-05-07 22:06 | 32.62132 | -84.41855 | 29592 ft | 491 kts | 189° |
| 2026-05-07 22:06 | 32.58730 | -84.41767 | 30494 ft | 485 kts | 189° |
| 2026-05-07 22:06 | 32.55379 | -84.41663 | 31386 ft | 480 kts | 189° |
| 2026-05-07 22:06 | 32.52059 | -84.41554 | 32246 ft | 474 kts | 190° |
| 2026-05-07 22:07 | 32.48767 | -84.41446 | 32867 ft | 473 kts | 190° |
| 2026-05-07 22:07 | 32.45499 | -84.41342 | 33773 ft | 465 kts | 190° |
| 2026-05-07 22:07 | 32.42272 | -84.41237 | 34229 ft | 466 kts | 190° |
| 2026-05-07 22:07 | 32.39024 | -84.41144 | 34727 ft | 464 kts | 191° |
| 2026-05-07 22:08 | 32.35833 | -84.41043 | 35496 ft | 457 kts | 191° |
| 2026-05-07 22:08 | 32.32622 | -84.40953 | 35484 ft | 468 kts | 191° |
| 2026-05-07 22:08 | 32.29347 | -84.40887 | 35799 ft | 468 kts | 191° |
| 2026-05-07 22:08 | 32.26151 | -84.40807 | 37015 ft | 451 kts | 191° |
| 2026-05-07 22:09 | 32.23000 | -84.40728 | 37454 ft | 459 kts | 191° |
| 2026-05-07 22:09 | 32.19762 | -84.40686 | 36779 ft | 470 kts | 191° |
| 2026-05-07 22:09 | 32.16518 | -84.40631 | 36570 ft | 460 kts | 191° |
| 2026-05-07 22:09 | 32.13350 | -84.40544 | 37044 ft | 455 kts | 191° |
| 2026-05-07 22:10 | 32.10143 | -84.40480 | 37036 ft | 466 kts | 191° |
| 2026-05-07 22:10 | 32.06910 | -84.40428 | 37008 ft | 464 kts | 191° |
| 2026-05-07 22:10 | 32.00460 | -84.40300 | 36963 ft | 463 kts | 191° |